createdAt,value
2019-05-02T00:01:38.402Z,1.90
2019-05-02T00:04:11.881Z,3.55
2019-05-02T00:06:42.994Z,2.57
2019-05-02T00:09:12.140Z,3.20
2019-05-02T00:11:41.764Z,2.33
2019-05-02T00:14:12.004Z,1.92
2019-05-02T00:16:45.053Z,1.60
2019-05-02T00:19:13.895Z,2.00
2019-05-02T00:21:43.758Z,3.57
2019-05-02T00:24:13.939Z,3.30
2019-05-02T00:26:43.899Z,2.95
2019-05-02T00:29:13.060Z,3.10
2019-05-02T00:31:46.865Z,3.17
2019-05-02T00:34:14.608Z,2.60
2019-05-02T00:36:44.104Z,2.03
2019-05-02T00:39:15.069Z,1.80
2019-05-02T00:41:44.428Z,2.75
2019-05-02T00:44:13.928Z,2.42
2019-05-02T00:46:44.183Z,3.25
2019-05-02T00:49:13.741Z,3.80
2019-05-02T00:51:42.996Z,3.40
2019-05-02T00:54:12.473Z,3.00
2019-05-02T00:56:44.095Z,2.98
2019-05-02T00:59:12.924Z,4.05
2019-05-02T01:02:05.337Z,3.43
2019-05-02T01:04:37.867Z,2.35
2019-05-02T01:07:07.782Z,3.15
2019-05-02T01:09:37.591Z,3.23
2019-05-02T01:12:08.449Z,2.05
2019-05-02T01:14:37.820Z,3.10
2019-05-02T01:17:07.647Z,3.93
2019-05-02T01:19:37.562Z,3.52
2019-05-02T01:22:10.449Z,4.20
2019-05-02T01:24:39.546Z,3.57
2019-05-02T01:27:15.875Z,3.30
2019-05-02T01:29:51.414Z,2.10
2019-05-02T01:32:37.665Z,3.20
2019-05-02T01:35:31.525Z,3.42
2019-05-02T01:38:26.378Z,4.07
2019-05-02T01:40:56.574Z,3.58
2019-05-02T01:43:27.251Z,3.80
2019-05-02T01:45:56.715Z,3.07
2019-05-02T01:48:26.453Z,3.23
2019-05-02T01:50:56.002Z,2.80
2019-05-02T01:53:29.437Z,4.50
2019-05-02T01:55:57.367Z,2.30
2019-05-02T01:58:27.959Z,3.33
2019-05-02T02:00:57.083Z,4.30
2019-05-02T02:03:26.587Z,2.03
2019-05-02T02:05:56.147Z,4.32
2019-05-02T02:08:27.400Z,4.53
2019-05-02T02:10:58.180Z,3.10
2019-05-02T02:13:31.306Z,2.95
2019-05-02T02:16:00.222Z,1.70
2019-05-02T02:18:32.202Z,3.27
2019-05-02T02:21:09.569Z,2.80
2019-05-02T02:24:03.550Z,2.20
2019-05-02T02:26:33.219Z,3.20
2019-05-02T02:29:03.014Z,2.63
2019-05-02T02:31:39.884Z,2.30
2019-05-02T02:34:05.252Z,3.07
2019-05-02T02:36:35.052Z,1.92
2019-05-02T02:39:07.222Z,2.45
2019-05-02T02:41:38.167Z,2.87
2019-05-02T02:44:42.694Z,2.72
2019-05-02T02:47:18.746Z,2.07
2019-05-02T02:49:43.823Z,3.87
2019-05-02T02:52:13.035Z,2.27
2019-05-02T02:54:43.647Z,2.43
2019-05-02T02:57:26.098Z,2.87
2019-05-02T02:59:44.927Z,2.00
2019-05-02T03:02:14.164Z,2.00
2019-05-02T03:04:45.942Z,2.87
2019-05-02T03:07:24.619Z,4.50
2019-05-02T03:09:45.743Z,3.40
2019-05-02T03:12:41.403Z,3.65
2019-05-02T03:15:13.960Z,2.10
2019-05-02T03:17:43.448Z,2.80
2019-05-02T03:20:12.582Z,2.53
2019-05-02T03:22:43.613Z,3.30
2019-05-02T03:25:18.426Z,2.40
2019-05-02T03:27:44.445Z,3.92
2019-05-02T03:30:29.649Z,2.30
2019-05-02T03:33:03.402Z,4.37
2019-05-02T03:35:18.824Z,3.20
2019-05-02T03:37:51.403Z,3.37
2019-05-02T03:40:18.159Z,1.67
2019-05-02T03:42:47.834Z,1.87
2019-05-02T03:45:17.457Z,4.97
2019-05-02T03:47:47.707Z,3.22
2019-05-02T03:50:16.900Z,2.30
2019-05-02T03:52:46.755Z,3.80
2019-05-02T03:55:16.258Z,3.87
2019-05-02T03:57:45.792Z,2.87
2019-05-02T04:00:21.261Z,2.20
2019-05-02T04:02:58.980Z,3.50
2019-05-02T04:05:19.668Z,4.67
2019-05-02T04:07:48.870Z,3.08
2019-05-02T04:10:38.008Z,1.72
2019-05-02T04:13:08.236Z,4.00
2019-05-02T04:15:37.733Z,2.47
2019-05-02T04:18:08.586Z,3.00
2019-05-02T04:20:43.529Z,4.37
2019-05-02T04:23:09.524Z,2.52
2019-05-02T04:25:39.341Z,2.00
2019-05-02T04:28:12.112Z,2.47
2019-05-02T04:30:45.137Z,4.50
2019-05-02T04:33:12.128Z,3.97
2019-05-02T04:35:41.391Z,3.37
2019-05-02T04:38:20.233Z,2.42
2019-05-02T04:40:46.407Z,3.70
2019-05-02T04:43:12.650Z,2.97
2019-05-02T04:45:53.082Z,3.53
2019-05-02T04:48:13.609Z,2.80
2019-05-02T04:50:42.727Z,5.13
2019-05-02T04:53:12.118Z,2.20
2019-05-02T04:55:42.227Z,2.90
2019-05-02T04:58:11.339Z,4.03
2019-05-02T05:00:45.103Z,4.27
2019-05-02T05:03:15.432Z,3.53
2019-05-02T05:05:43.425Z,2.87
2019-05-02T05:08:19.623Z,3.77
2019-05-02T05:10:45.086Z,2.90
2019-05-02T05:13:19.892Z,3.93
2019-05-02T05:15:49.531Z,2.60
2019-05-02T05:18:17.636Z,4.57
2019-05-02T05:20:53.271Z,2.83
2019-05-02T05:23:38.186Z,2.50
2019-05-02T05:26:07.639Z,3.45
2019-05-02T05:28:40.542Z,4.00
2019-05-02T05:31:08.403Z,3.03
2019-05-02T05:33:38.440Z,3.63
2019-05-02T05:36:08.161Z,4.07
2019-05-02T05:38:40.420Z,3.53
2019-05-02T05:41:12.852Z,3.73
2019-05-02T05:43:44.875Z,3.87
2019-05-02T05:46:13.228Z,4.17
2019-05-02T05:48:42.519Z,4.65
2019-05-02T05:51:16.053Z,4.92
2019-05-02T05:53:42.776Z,3.37
2019-05-02T05:56:11.935Z,4.73
2019-05-02T05:58:50.483Z,4.40
2019-05-02T06:01:11.996Z,4.15
2019-05-02T06:03:44.881Z,3.00
2019-05-02T06:06:14.796Z,2.70
2019-05-02T06:08:44.224Z,2.80
2019-05-02T06:11:14.866Z,2.93
2019-05-02T06:13:48.785Z,3.30
2019-05-02T06:16:16.702Z,1.97
2019-05-02T06:18:46.624Z,2.83
2019-05-02T06:21:17.169Z,3.87
2019-05-02T06:23:46.727Z,4.10
2019-05-02T06:26:16.679Z,4.20
2019-05-02T06:28:45.922Z,2.93
2019-05-02T06:31:17.106Z,3.93
2019-05-02T06:33:46.738Z,4.08
2019-05-02T06:36:16.643Z,3.27
2019-05-02T06:38:46.259Z,3.02
2019-05-02T06:41:16.196Z,5.05
2019-05-02T06:43:48.271Z,3.27
2019-05-02T06:46:21.951Z,2.47
2019-05-02T06:48:52.279Z,4.28
2019-05-02T06:51:21.053Z,3.87
2019-05-02T06:53:50.748Z,2.30
2019-05-02T06:56:20.487Z,3.55
2019-05-02T06:58:50.007Z,2.67
2019-05-02T07:01:21.136Z,5.20
2019-05-02T07:03:50.111Z,2.80
2019-05-02T07:06:20.047Z,3.55
2019-05-02T07:08:49.281Z,3.30
2019-05-02T07:11:18.506Z,3.43
2019-05-02T07:13:47.616Z,4.10
2019-05-02T07:16:37.803Z,4.60
2019-05-02T07:18:59.524Z,2.73
2019-05-02T07:21:28.672Z,2.73
2019-05-02T07:23:58.243Z,3.57
2019-05-02T07:26:27.379Z,3.00
2019-05-02T07:28:57.151Z,3.33
2019-05-02T07:31:26.856Z,3.63
2019-05-02T07:33:56.907Z,2.52
2019-05-02T07:36:31.342Z,3.53
2019-05-02T07:39:04.956Z,4.10
2019-05-02T07:41:30.285Z,4.63
2019-05-02T07:43:59.928Z,4.97
2019-05-02T07:46:29.183Z,3.50
2019-05-02T07:48:58.663Z,3.30
2019-05-02T07:51:28.543Z,4.65
2019-05-02T07:53:58.208Z,3.00
2019-05-02T07:56:27.695Z,3.70
2019-05-02T07:58:57.340Z,4.08
2019-05-02T08:01:27.131Z,4.05
2019-05-02T08:03:57.512Z,3.30
2019-05-02T08:06:34.965Z,4.72
2019-05-02T08:09:01.801Z,4.40
2019-05-02T08:11:32.172Z,3.55
2019-05-02T08:14:00.709Z,4.20
2019-05-02T08:16:29.922Z,4.15
2019-05-02T08:19:01.271Z,4.40
2019-05-02T08:21:32.495Z,3.60
2019-05-02T08:24:02.152Z,5.62
2019-05-02T08:26:53.465Z,4.22
2019-05-02T08:29:23.524Z,4.53
2019-05-02T08:31:52.395Z,4.50
2019-05-02T08:34:30.257Z,3.97
2019-05-02T08:37:03.326Z,5.73
2019-05-02T08:39:33.797Z,5.10
2019-05-02T08:42:02.046Z,4.43
2019-05-02T08:44:31.477Z,3.60
2019-05-02T08:47:00.859Z,4.07
2019-05-02T08:49:30.747Z,4.50
2019-05-02T08:52:00.166Z,4.40
2019-05-02T08:54:32.883Z,5.00
2019-05-02T08:57:00.644Z,3.80
2019-05-02T08:59:30.597Z,3.62
2019-05-02T09:01:59.711Z,3.53
2019-05-02T09:04:30.413Z,4.03
2019-05-02T09:07:00.752Z,2.10
2019-05-02T09:09:30.219Z,3.37
2019-05-02T09:12:10.717Z,3.33
2019-05-02T09:14:32.224Z,3.40
2019-05-02T09:17:08.602Z,2.67
2019-05-02T09:19:34.892Z,3.77
2019-05-02T09:22:07.692Z,4.40
2019-05-02T09:24:35.791Z,3.42
2019-05-02T09:27:04.911Z,3.70
2019-05-02T09:29:37.333Z,4.27
2019-05-02T09:32:05.022Z,3.57
2019-05-02T09:34:34.178Z,3.90
2019-05-02T09:37:03.395Z,3.98
2019-05-02T09:39:36.469Z,3.53
2019-05-02T09:42:06.691Z,3.40
2019-05-02T09:44:35.390Z,3.67
2019-05-02T09:47:05.047Z,3.42
2019-05-02T09:49:34.283Z,3.60
2019-05-02T09:52:03.768Z,3.40
2019-05-02T09:54:37.019Z,3.07
2019-05-02T09:57:05.095Z,4.75
2019-05-02T09:59:34.935Z,4.55
2019-05-02T10:02:06.436Z,4.42
2019-05-02T10:04:35.674Z,5.60
2019-05-02T10:07:05.047Z,6.37
2019-05-02T10:09:34.177Z,6.70
2019-05-02T10:12:03.360Z,4.33
2019-05-02T10:14:33.217Z,3.77
2019-05-02T10:17:06.932Z,4.33
2019-05-02T10:19:34.781Z,3.30
2019-05-02T10:22:04.189Z,3.73
2019-05-02T10:24:33.774Z,4.27
2019-05-02T10:27:08.248Z,4.03
2019-05-02T10:29:34.143Z,4.55
2019-05-02T10:32:07.630Z,3.75
2019-05-02T10:34:34.466Z,3.60
2019-05-02T10:37:03.587Z,4.33
2019-05-02T10:39:36.187Z,3.60
2019-05-02T10:42:03.764Z,5.20
2019-05-02T10:44:36.441Z,4.42
2019-05-02T10:47:04.609Z,4.63
2019-05-02T10:50:05.223Z,3.40
2019-05-02T10:52:34.828Z,5.65
2019-05-02T10:55:05.070Z,4.90
2019-05-02T10:57:34.656Z,3.37
2019-05-02T11:00:04.587Z,3.72
2019-05-02T11:03:02.630Z,4.22
2019-05-02T11:05:33.387Z,3.93
2019-05-02T11:08:06.253Z,3.60
2019-05-02T11:10:33.790Z,3.50
2019-05-02T11:13:14.235Z,4.47
2019-05-02T11:16:09.603Z,3.60
2019-05-02T11:18:57.247Z,5.42
2019-05-02T11:21:26.771Z,4.50
2019-05-02T11:23:56.179Z,4.95
2019-05-02T11:26:26.109Z,4.22
2019-05-02T11:28:55.719Z,4.80
2019-05-02T11:31:25.899Z,5.60
2019-05-02T11:33:55.061Z,5.43
2019-05-02T11:36:27.397Z,4.30
2019-05-02T11:39:08.442Z,3.67
2019-05-02T11:41:26.583Z,4.90
2019-05-02T11:43:55.935Z,3.10
2019-05-02T11:46:25.192Z,4.47
2019-05-02T11:48:58.433Z,3.23
2019-05-02T11:51:26.322Z,4.53
2019-05-02T11:53:59.207Z,3.77
2019-05-02T11:56:26.467Z,2.70
2019-05-02T11:58:55.917Z,3.65
2019-05-02T12:01:35.570Z,4.55
2019-05-02T12:03:56.183Z,6.30
2019-05-02T12:06:25.311Z,4.20
2019-05-02T12:08:54.459Z,3.37
2019-05-02T12:11:23.627Z,6.03
2019-05-02T12:13:56.957Z,4.23
2019-05-02T12:16:24.798Z,4.00
2019-05-02T12:19:07.914Z,3.43
2019-05-02T12:21:25.755Z,3.60
2019-05-02T12:23:55.259Z,2.57
2019-05-02T12:26:25.076Z,3.33
2019-05-02T12:28:54.667Z,4.53
2019-05-02T12:31:28.771Z,3.00
2019-05-02T12:33:59.432Z,3.93
2019-05-02T12:36:28.559Z,3.15
2019-05-02T12:38:58.036Z,2.40
2019-05-02T12:41:27.495Z,4.20
2019-05-02T12:43:56.940Z,3.27
2019-05-02T12:46:28.469Z,1.95
2019-05-02T12:48:57.346Z,2.50
2019-05-02T12:51:26.482Z,2.52
2019-05-02T12:53:55.959Z,2.87
2019-05-02T12:56:25.777Z,1.92
2019-05-02T12:58:55.207Z,2.40
2019-05-02T13:01:24.807Z,2.50
2019-05-02T13:04:04.882Z,2.60
2019-05-02T13:06:37.105Z,2.50
2019-05-02T13:09:09.920Z,1.72
2019-05-02T13:11:58.643Z,1.85
2019-05-02T13:14:31.879Z,2.95
2019-05-02T13:17:05.615Z,2.40
2019-05-02T13:19:40.007Z,2.47
2019-05-02T13:22:13.742Z,3.17
2019-05-02T13:24:51.285Z,3.67
2019-05-02T13:27:18.467Z,1.80
2019-05-02T13:29:49.640Z,2.30
2019-05-02T13:32:26.703Z,2.95
2019-05-02T13:35:02.265Z,2.08
2019-05-02T13:37:32.599Z,1.77
2019-05-02T13:40:07.581Z,2.00
2019-05-02T13:42:37.117Z,1.90
2019-05-02T13:45:17.419Z,1.90
2019-05-02T13:47:46.864Z,3.23
2019-05-02T13:50:18.756Z,2.85
2019-05-02T13:52:53.166Z,4.35
2019-05-02T13:55:23.763Z,2.37
2019-05-02T13:57:53.287Z,3.87
2019-05-02T14:00:29.220Z,2.00
2019-05-02T14:02:58.861Z,3.42
2019-05-02T14:05:28.010Z,1.97
2019-05-02T14:08:15.418Z,2.22
2019-05-02T14:10:45.883Z,2.70
2019-05-02T14:13:15.379Z,2.10
2019-05-02T14:15:44.916Z,1.70
2019-05-02T14:18:14.027Z,2.17
2019-05-02T14:20:54.787Z,1.93
2019-05-02T14:23:23.907Z,2.40
2019-05-02T14:25:53.121Z,2.37
2019-05-02T14:28:26.846Z,2.63
2019-05-02T14:30:54.260Z,1.60
2019-05-02T14:33:26.517Z,1.90
2019-05-02T14:35:55.755Z,4.30
2019-05-02T14:38:24.951Z,2.35
2019-05-02T14:41:14.599Z,4.90
2019-05-02T14:43:53.230Z,2.00
2019-05-02T14:46:28.852Z,2.83
2019-05-02T14:48:55.476Z,2.67
2019-05-02T14:51:27.681Z,3.03
2019-05-02T14:53:57.480Z,2.45
2019-05-02T14:56:43.405Z,3.02
2019-05-02T14:59:15.348Z,2.30
2019-05-02T15:01:46.679Z,2.17
2019-05-02T15:04:14.953Z,3.37
2019-05-02T15:06:47.446Z,3.15
2019-05-02T15:09:16.766Z,4.23
2019-05-02T15:12:03.133Z,2.20
2019-05-02T15:14:34.760Z,3.25
2019-05-02T15:17:05.137Z,3.30
2019-05-02T15:19:34.796Z,2.92
2019-05-02T15:22:03.950Z,1.77
2019-05-02T15:24:37.433Z,1.70
2019-05-02T15:27:12.060Z,2.93
2019-05-02T15:29:35.053Z,2.55
2019-05-02T15:32:25.219Z,2.63
2019-05-02T15:35:12.783Z,2.40
2019-05-02T15:37:42.518Z,3.40
2019-05-02T15:40:43.483Z,1.50
2019-05-02T15:42:52.159Z,2.15
2019-05-02T15:45:23.789Z,2.73
2019-05-02T15:47:53.075Z,1.40
2019-05-02T15:50:25.360Z,2.00
2019-05-02T15:53:03.136Z,2.43
2019-05-02T15:55:32.498Z,1.40
2019-05-02T15:58:02.451Z,0.80
2019-05-02T16:00:36.684Z,2.27
2019-05-02T16:03:05.809Z,1.52
2019-05-02T16:05:36.679Z,1.67
2019-05-02T16:08:08.914Z,1.10
2019-05-02T16:10:38.728Z,1.10
2019-05-02T16:13:15.738Z,1.70
2019-05-02T16:15:42.801Z,1.50
2019-05-02T16:18:12.878Z,1.37
2019-05-02T16:21:04.501Z,1.47
2019-05-02T16:23:29.442Z,1.20
2019-05-02T16:25:56.842Z,1.98
2019-05-02T16:28:24.360Z,1.40
2019-05-02T16:30:56.335Z,1.27
2019-05-02T16:33:25.868Z,1.32
2019-05-02T16:35:55.291Z,2.42
2019-05-02T16:38:26.791Z,1.85
2019-05-02T16:40:56.132Z,1.90
2019-05-02T16:43:27.250Z,1.40
2019-05-02T16:45:57.454Z,1.90
2019-05-02T16:48:30.561Z,1.93
2019-05-02T16:50:57.735Z,1.57
2019-05-02T16:53:27.209Z,2.17
2019-05-02T16:55:58.346Z,2.17
2019-05-02T16:58:27.555Z,1.53
2019-05-02T17:00:57.131Z,2.10
2019-05-02T17:03:26.616Z,1.83
2019-05-02T17:05:56.382Z,1.70
2019-05-02T17:08:44.479Z,1.80
2019-05-02T17:11:35.614Z,1.73
2019-05-02T17:14:06.963Z,2.10
2019-05-02T17:16:34.578Z,2.02
2019-05-02T17:19:04.158Z,2.00
2019-05-02T17:21:52.206Z,2.12
2019-05-02T17:24:04.526Z,1.90
2019-05-02T17:26:34.067Z,1.30
2019-05-02T17:29:03.461Z,2.45
2019-05-02T17:31:33.152Z,1.90
2019-05-02T17:34:02.834Z,1.50
2019-05-02T17:36:32.545Z,1.70
2019-05-02T17:39:06.357Z,2.43
2019-05-02T17:41:37.003Z,3.62
2019-05-02T17:44:04.687Z,1.77
2019-05-02T17:46:33.817Z,1.90
2019-05-02T17:49:03.355Z,1.43
2019-05-02T17:51:51.917Z,2.33
2019-05-02T17:54:22.694Z,1.37
2019-05-02T17:56:57.413Z,2.20
2019-05-02T17:59:28.133Z,1.90
2019-05-02T18:01:54.574Z,2.75
2019-05-02T18:04:23.751Z,3.10
2019-05-02T18:06:55.117Z,3.03
2019-05-02T18:09:26.271Z,2.77
2019-05-02T18:11:57.004Z,2.08
2019-05-02T18:14:27.189Z,2.47
2019-05-02T18:16:57.315Z,2.08
2019-05-02T18:19:26.931Z,2.55
2019-05-02T18:21:58.105Z,2.27
2019-05-02T18:24:28.123Z,1.90
2019-05-02T18:26:57.364Z,2.87
2019-05-02T18:29:27.292Z,2.45
2019-05-02T18:31:56.827Z,2.55
2019-05-02T18:34:26.851Z,3.04
2019-05-02T18:36:57.327Z,3.98
2019-05-02T18:39:26.903Z,3.85
2019-05-02T18:41:57.300Z,2.50
2019-05-02T18:44:27.048Z,3.06
2019-05-02T18:46:57.862Z,3.75
2019-05-02T18:49:27.161Z,2.08
2019-05-02T18:51:57.541Z,3.12
2019-05-02T18:54:27.223Z,3.35
2019-05-02T18:56:57.537Z,2.80
2019-05-02T18:59:27.418Z,2.72
2019-05-02T19:01:59.613Z,1.42
2019-05-02T19:04:35.218Z,3.62
2019-05-02T19:07:00.190Z,2.83
2019-05-02T19:09:30.557Z,2.45
2019-05-02T19:12:06.559Z,2.77
2019-05-02T19:14:32.709Z,2.33
2019-05-02T19:17:03.550Z,3.23
2019-05-02T19:19:36.678Z,2.70
2019-05-02T19:22:07.452Z,4.08
2019-05-02T19:24:36.472Z,3.50
2019-05-02T19:27:06.276Z,2.50
2019-05-02T19:29:35.863Z,3.67
2019-05-02T19:32:08.327Z,2.30
2019-05-02T19:34:37.930Z,3.20
2019-05-02T19:37:07.439Z,2.17
2019-05-02T19:39:39.134Z,4.03
2019-05-02T19:42:09.861Z,2.37
2019-05-02T19:44:39.462Z,2.30
2019-05-02T19:47:12.965Z,2.70
2019-05-02T19:49:39.470Z,2.50
2019-05-02T19:52:08.581Z,3.77
2019-05-02T19:54:39.751Z,4.30
2019-05-02T19:57:09.084Z,2.97
2019-05-02T19:59:38.551Z,2.52
2019-05-02T20:02:08.091Z,4.00
2019-05-02T20:04:42.711Z,3.60
2019-05-02T20:07:08.735Z,4.40
2019-05-02T20:09:43.734Z,2.93
2019-05-02T20:12:13.421Z,3.17
2019-05-02T20:14:43.571Z,4.70
2019-05-02T20:17:14.898Z,3.33
2019-05-02T20:19:47.162Z,3.15
2019-05-02T20:22:17.939Z,4.55
2019-05-02T20:24:59.861Z,3.37
2019-05-02T20:27:28.515Z,5.20
2019-05-02T20:29:57.618Z,5.60
2019-05-02T20:32:26.870Z,4.03
2019-05-02T20:34:56.319Z,5.13
2019-05-02T20:37:25.531Z,4.47
2019-05-02T20:39:55.005Z,4.10
2019-05-02T20:42:24.123Z,5.80
2019-05-02T20:44:54.159Z,4.97
2019-05-02T20:47:25.670Z,5.35
2019-05-02T20:49:55.207Z,5.60
2019-05-02T20:52:24.708Z,6.33
2019-05-02T20:54:54.309Z,4.78
2019-05-02T20:57:23.441Z,7.40
2019-05-02T20:59:52.782Z,5.30
2019-05-02T21:02:22.424Z,3.45
2019-05-02T21:04:52.362Z,3.50
2019-05-02T21:07:39.602Z,5.70
2019-05-02T21:10:33.605Z,6.05
2019-05-02T21:13:03.191Z,4.67
2019-05-02T21:15:32.722Z,5.78
2019-05-02T21:18:02.461Z,7.53
2019-05-02T21:20:32.506Z,7.43
2019-05-02T21:23:02.694Z,5.50
2019-05-02T21:25:32.552Z,5.13
2019-05-02T21:28:02.910Z,5.73
2019-05-02T21:30:32.782Z,9.33
2019-05-02T21:33:02.764Z,6.93
2019-05-02T21:35:32.212Z,5.00
2019-05-02T21:38:01.551Z,6.85
2019-05-02T21:40:32.714Z,9.23
2019-05-02T21:43:02.542Z,10.58
2019-05-02T21:45:32.266Z,6.95
2019-05-02T21:48:02.328Z,6.10
2019-05-02T21:50:47.206Z,6.43
2019-05-02T21:53:24.307Z,7.70
2019-05-02T21:56:08.493Z,6.70
2019-05-02T21:58:37.695Z,5.80
2019-05-02T22:01:10.186Z,6.70
2019-05-02T22:03:41.100Z,5.72
2019-05-02T22:06:12.202Z,8.08
2019-05-02T22:08:41.865Z,6.85
2019-05-02T22:11:12.244Z,6.50
2019-05-02T22:13:42.445Z,8.20
2019-05-02T22:16:12.948Z,7.53
2019-05-02T22:18:42.871Z,8.28
2019-05-02T22:21:12.458Z,6.87
2019-05-02T22:23:42.527Z,5.97
2019-05-02T22:26:12.733Z,5.50
2019-05-02T22:28:42.484Z,5.78
2019-05-02T22:31:12.505Z,6.23
2019-05-02T22:33:44.303Z,7.60
2019-05-02T22:36:12.966Z,6.67
2019-05-02T22:39:02.074Z,6.62
2019-05-02T22:41:32.673Z,7.20
2019-05-02T22:44:02.147Z,6.10
2019-05-02T22:46:43.469Z,5.50
2019-05-02T22:49:14.500Z,5.78
2019-05-02T22:51:45.034Z,8.58
2019-05-02T22:54:26.766Z,5.22
2019-05-02T22:56:46.308Z,5.37
2019-05-02T22:59:15.790Z,8.13
2019-05-02T23:01:44.939Z,7.55
2019-05-02T23:04:14.420Z,6.40
2019-05-02T23:06:44.432Z,5.67
2019-05-02T23:09:13.938Z,5.78
2019-05-02T23:11:43.433Z,4.62
2019-05-02T23:14:13.250Z,7.75
2019-05-02T23:16:42.945Z,5.72
2019-05-02T23:19:12.645Z,6.95
2019-05-02T23:21:42.428Z,5.95
2019-05-02T23:24:18.067Z,8.98
2019-05-02T23:26:56.610Z,6.50
2019-05-02T23:29:26.368Z,5.50
2019-05-02T23:31:55.971Z,6.70
2019-05-02T23:34:25.155Z,7.67
2019-05-02T23:36:54.574Z,7.40
2019-05-02T23:39:24.072Z,6.63
2019-05-02T23:41:53.207Z,7.72
2019-05-02T23:44:23.009Z,4.23
2019-05-02T23:46:52.783Z,7.58
2019-05-02T23:49:22.148Z,6.97
2019-05-02T23:51:52.043Z,6.97
2019-05-02T23:54:22.054Z,7.03
2019-05-02T23:56:52.064Z,5.80
2019-05-02T23:59:22.375Z,5.65
